createdAt,value
2022-11-05T00:00:33.437Z,62.87
2022-11-05T00:03:27.791Z,62.95
2022-11-05T00:06:13.892Z,56.13
2022-11-05T00:11:46.765Z,60.72
2022-11-05T00:14:33.338Z,54.70
2022-11-05T00:17:00.669Z,54.15
2022-11-05T00:19:28.218Z,53.80
2022-11-05T00:22:14.460Z,57.65
2022-11-05T00:25:00.862Z,51.08
2022-11-05T00:27:28.174Z,53.22
2022-11-05T00:29:55.641Z,52.05
2022-11-05T00:32:24.072Z,54.63
2022-11-05T00:34:51.503Z,52.15
2022-11-05T00:37:18.648Z,73.13
2022-11-05T00:39:46.112Z,81.35
2022-11-05T00:42:31.811Z,67.03
2022-11-05T00:45:02.291Z,67.82
2022-11-05T00:47:49.282Z,58.80
2022-11-05T00:50:17.591Z,58.78
2022-11-05T00:53:05.117Z,53.58
2022-11-05T00:55:42.010Z,67.72
2022-11-05T00:58:13.572Z,59.42
2022-11-05T01:00:43.555Z,53.92
2022-11-05T01:03:13.648Z,63.70
2022-11-05T01:05:56.520Z,51.67
2022-11-05T01:08:25.846Z,48.58
2022-11-05T01:10:56.343Z,54.83
2022-11-05T01:13:28.058Z,50.45
2022-11-05T01:15:56.677Z,63.88
2022-11-05T01:18:24.593Z,55.83
2022-11-05T01:20:52.392Z,55.28
2022-11-05T01:23:20.013Z,58.55
2022-11-05T01:25:47.775Z,58.67
2022-11-05T01:28:15.107Z,54.85
2022-11-05T01:30:42.704Z,64.47
2022-11-05T01:33:10.203Z,57.05
2022-11-05T01:35:39.487Z,51.03
2022-11-05T01:38:06.660Z,56.30
2022-11-05T01:40:34.412Z,53.97
2022-11-05T01:43:01.537Z,56.10
2022-11-05T01:45:29.257Z,53.42
2022-11-05T01:48:29.044Z,55.20
2022-11-05T01:51:01.734Z,59.63
2022-11-05T01:53:36.695Z,52.03
2022-11-05T01:56:23.960Z,53.25
2022-11-05T01:58:58.538Z,57.20
2022-11-05T02:01:27.113Z,61.40
2022-11-05T02:04:00.247Z,59.10
2022-11-05T02:06:30.548Z,56.35
2022-11-05T02:09:03.065Z,57.20
2022-11-05T02:11:30.896Z,47.88
2022-11-05T02:13:58.060Z,55.35
2022-11-05T02:16:46.758Z,59.75
2022-11-05T02:19:13.892Z,55.15
2022-11-05T02:21:41.299Z,58.63
2022-11-05T02:24:42.178Z,74.50
2022-11-05T02:27:33.117Z,63.80
2022-11-05T02:30:08.181Z,65.20
2022-11-05T02:33:10.487Z,95.38
2022-11-05T02:35:47.097Z,92.15
2022-11-05T02:38:29.826Z,71.70
2022-11-05T02:41:23.640Z,68.90
2022-11-05T02:44:06.488Z,58.53
2022-11-05T02:46:46.340Z,104.53
2022-11-05T02:49:40.110Z,130.40
2022-11-05T02:52:31.481Z,115.55
2022-11-05T02:55:23.145Z,81.68
2022-11-05T02:57:50.390Z,83.70
2022-11-05T03:00:42.803Z,74.47
2022-11-05T03:03:25.319Z,72.30
2022-11-05T03:06:17.108Z,76.82
2022-11-05T03:08:59.467Z,62.50
2022-11-05T03:11:31.218Z,63.08
2022-11-05T03:14:09.287Z,64.97
2022-11-05T03:16:43.302Z,54.17
2022-11-05T03:19:39.561Z,59.85
2022-11-05T03:22:15.398Z,57.53
2022-11-05T03:24:50.885Z,52.75
2022-11-05T03:27:27.655Z,55.67
2022-11-05T03:30:02.137Z,58.00
2022-11-05T03:32:34.006Z,53.53
2022-11-05T03:35:21.008Z,58.53
2022-11-05T03:37:51.302Z,65.30
2022-11-05T03:40:22.601Z,63.88
2022-11-05T03:42:55.479Z,70.43
2022-11-05T03:45:34.383Z,78.72
2022-11-05T03:48:04.851Z,71.30
2022-11-05T03:50:43.491Z,71.90
2022-11-05T03:53:17.519Z,71.65
2022-11-05T03:56:11.093Z,79.05
2022-11-05T03:58:43.803Z,78.25
2022-11-05T04:01:11.367Z,76.00
2022-11-05T04:03:39.102Z,72.50
2022-11-05T04:06:28.569Z,75.30
2022-11-05T04:09:14.585Z,63.38
2022-11-05T04:12:00.245Z,61.50
2022-11-05T04:14:27.765Z,63.05
2022-11-05T04:17:07.233Z,63.20
2022-11-05T04:19:57.954Z,62.20
2022-11-05T04:22:46.231Z,61.05
2022-11-05T04:25:15.216Z,70.13
2022-11-05T04:27:42.535Z,67.03
2022-11-05T04:30:20.051Z,62.40
2022-11-05T04:33:04.885Z,65.53
2022-11-05T04:35:34.003Z,60.97
2022-11-05T04:38:02.314Z,56.85
2022-11-05T04:40:30.308Z,57.42
2022-11-05T04:42:58.598Z,64.38
2022-11-05T04:45:29.677Z,52.30
2022-11-05T04:47:57.083Z,58.03
2022-11-05T04:50:24.853Z,55.72
2022-11-05T04:52:53.304Z,41.55
2022-11-05T04:55:21.690Z,51.10
2022-11-05T04:57:50.078Z,41.72
2022-11-05T05:00:18.987Z,29.92
2022-11-05T05:02:46.696Z,23.48
2022-11-05T05:05:14.672Z,23.20
2022-11-05T05:07:42.762Z,18.35
2022-11-05T05:10:11.265Z,15.25
2022-11-05T05:12:38.636Z,18.15
2022-11-05T05:15:06.734Z,13.98
2022-11-05T05:17:34.286Z,11.93
2022-11-05T05:20:20.436Z,8.25
2022-11-05T05:22:54.758Z,9.80
2022-11-05T05:25:23.115Z,8.00
2022-11-05T05:27:50.378Z,11.07
2022-11-05T05:30:18.644Z,15.50
2022-11-05T05:32:45.935Z,13.20
2022-11-05T05:35:13.544Z,10.57
2022-11-05T05:37:40.910Z,11.77
2022-11-05T05:40:09.629Z,9.18
2022-11-05T05:42:42.729Z,11.00
2022-11-05T05:45:12.294Z,11.05
2022-11-05T05:47:39.557Z,11.20
2022-11-05T05:50:07.469Z,13.30
2022-11-05T05:52:34.747Z,12.13
2022-11-05T05:55:02.346Z,20.65
2022-11-05T05:57:29.598Z,20.35
2022-11-05T05:59:57.119Z,20.25
2022-11-05T06:02:24.509Z,15.82
2022-11-05T06:04:52.185Z,19.83
2022-11-05T06:07:19.407Z,17.10
2022-11-05T06:09:47.074Z,25.30
2022-11-05T06:12:15.668Z,26.55
2022-11-05T06:14:43.442Z,25.23
2022-11-05T06:17:10.736Z,21.70
2022-11-05T06:19:39.337Z,19.73
2022-11-05T06:22:06.583Z,19.85
2022-11-05T06:24:34.376Z,20.17
2022-11-05T06:27:01.626Z,20.02
2022-11-05T06:29:29.186Z,20.85
2022-11-05T06:31:56.303Z,19.75
2022-11-05T06:34:23.841Z,22.58
2022-11-05T06:36:51.077Z,20.38
2022-11-05T06:39:18.591Z,13.32
2022-11-05T06:42:12.061Z,15.40
2022-11-05T06:44:33.411Z,13.63
2022-11-05T06:47:00.623Z,8.20
2022-11-05T06:49:28.161Z,7.80
2022-11-05T06:51:55.326Z,8.68
2022-11-05T06:54:22.878Z,8.52
2022-11-05T06:56:50.071Z,9.55
2022-11-05T06:59:17.905Z,9.32
2022-11-05T07:01:45.177Z,9.38
2022-11-05T07:04:13.114Z,6.88
2022-11-05T07:06:40.341Z,6.47
2022-11-05T07:09:07.907Z,6.22
2022-11-05T07:11:35.056Z,4.95
2022-11-05T07:14:02.666Z,4.60
2022-11-05T07:16:29.981Z,4.93
2022-11-05T07:18:57.549Z,4.45
2022-11-05T07:21:24.978Z,3.90
2022-11-05T07:23:52.525Z,3.65
2022-11-05T07:26:19.908Z,4.38
2022-11-05T07:28:47.613Z,4.50
2022-11-05T07:31:14.896Z,4.32
2022-11-05T07:33:42.570Z,4.80
2022-11-05T07:36:10.104Z,5.03
2022-11-05T07:38:37.685Z,5.85
2022-11-05T07:41:05.022Z,4.57
2022-11-05T07:43:32.814Z,4.43
2022-11-05T07:46:00.054Z,4.82
2022-11-05T07:48:27.632Z,2.47
2022-11-05T07:50:54.907Z,2.47
2022-11-05T07:53:22.571Z,3.00
2022-11-05T07:55:49.732Z,2.38
2022-11-05T07:58:17.396Z,2.00
2022-11-05T08:00:44.994Z,4.50
2022-11-05T08:03:14.935Z,3.20
2022-11-05T08:05:46.301Z,1.85
2022-11-05T08:08:16.976Z,3.92
2022-11-05T08:10:44.742Z,3.90
2022-11-05T08:13:13.641Z,6.97
2022-11-05T08:15:42.834Z,4.60
2022-11-05T08:18:16.608Z,4.57
2022-11-05T08:20:47.093Z,3.50
2022-11-05T08:23:15.129Z,2.85
2022-11-05T08:25:42.560Z,4.15
2022-11-05T08:28:13.963Z,4.28
2022-11-05T08:30:41.644Z,2.33
2022-11-05T08:33:13.410Z,3.72
2022-11-05T08:35:41.272Z,4.82
2022-11-05T08:38:13.818Z,5.82
2022-11-05T08:40:42.400Z,4.78
2022-11-05T08:43:12.513Z,3.40
2022-11-05T08:45:41.483Z,6.78
2022-11-05T08:48:12.604Z,3.13
2022-11-05T08:50:39.962Z,2.72
2022-11-05T08:53:08.763Z,3.03
2022-11-05T08:55:36.535Z,3.50
2022-11-05T08:58:17.166Z,4.63
2022-11-05T09:00:47.727Z,2.03
2022-11-05T09:03:16.249Z,2.70
2022-11-05T09:05:43.907Z,4.72
2022-11-05T09:08:14.481Z,4.60
2022-11-05T09:10:42.303Z,5.13
2022-11-05T09:13:17.792Z,4.30
2022-11-05T09:18:14.555Z,5.22
2022-11-05T09:20:42.138Z,2.08
2022-11-05T09:23:11.981Z,2.58
2022-11-05T09:25:39.822Z,4.47
2022-11-05T09:28:16.565Z,2.30
2022-11-05T09:30:47.650Z,2.17
2022-11-05T09:33:16.852Z,2.85
2022-11-05T09:35:44.758Z,2.97
2022-11-05T09:38:13.198Z,2.42
2022-11-05T09:41:05.423Z,2.50
2022-11-05T09:43:57.729Z,3.47
2022-11-05T09:46:29.669Z,5.90
2022-11-05T09:49:06.432Z,4.22
2022-11-05T09:51:36.846Z,3.70
2022-11-05T09:54:06.086Z,2.67
2022-11-05T09:56:37.618Z,4.80
2022-11-05T09:59:18.402Z,3.65
2022-11-05T10:01:47.143Z,3.63
2022-11-05T10:04:22.659Z,6.88
2022-11-05T10:07:03.034Z,6.40
2022-11-05T10:09:37.072Z,6.50
2022-11-05T10:12:40.280Z,4.50
2022-11-05T10:15:17.189Z,3.55
2022-11-05T10:18:03.810Z,5.55
2022-11-05T10:20:37.461Z,3.83
2022-11-05T10:23:21.351Z,3.75
2022-11-05T10:25:55.123Z,6.75
2022-11-05T10:28:26.367Z,4.90
2022-11-05T10:31:00.618Z,7.18
2022-11-05T10:33:40.061Z,4.80
2022-11-05T10:36:12.839Z,11.18
2022-11-05T10:38:40.105Z,9.05
2022-11-05T10:41:29.523Z,8.88
2022-11-05T10:44:21.318Z,5.72
2022-11-05T10:47:08.537Z,8.25
2022-11-05T10:50:00.682Z,6.43
2022-11-05T10:52:37.397Z,8.50
2022-11-05T10:55:15.197Z,7.10
2022-11-05T10:57:42.808Z,7.95
2022-11-05T11:00:18.932Z,6.47
2022-11-05T11:02:49.656Z,5.43
2022-11-05T11:05:23.867Z,3.00
2022-11-05T11:08:04.055Z,3.35
2022-11-05T11:10:37.940Z,4.82
2022-11-05T11:13:06.232Z,2.90
2022-11-05T11:15:33.610Z,7.53
2022-11-05T11:18:40.088Z,1.85
2022-11-05T11:21:17.594Z,3.42
2022-11-05T11:23:55.085Z,7.47
2022-11-05T11:26:24.843Z,6.95
2022-11-05T11:29:00.123Z,7.55
2022-11-05T11:31:30.813Z,5.30
2022-11-05T11:34:05.655Z,5.05
2022-11-05T11:36:45.917Z,13.05
2022-11-05T11:39:24.561Z,13.18
2022-11-05T11:41:55.406Z,9.23
2022-11-05T11:44:33.020Z,8.90
2022-11-05T11:47:12.780Z,6.03
2022-11-05T11:49:49.553Z,9.98
2022-11-05T11:52:26.514Z,8.48
2022-11-05T11:55:27.974Z,5.13
2022-11-05T11:58:07.238Z,6.72
2022-11-05T12:00:42.076Z,8.18
2022-11-05T12:03:50.683Z,6.90
2022-11-05T12:06:31.342Z,5.43
2022-11-05T12:09:17.273Z,5.22
2022-11-05T12:11:56.750Z,4.82
2022-11-05T12:14:32.690Z,3.20
2022-11-05T12:17:12.913Z,5.95
2022-11-05T12:20:17.621Z,5.40
2022-11-05T12:22:54.133Z,11.98
2022-11-05T12:28:26.716Z,9.50
2022-11-05T12:31:26.760Z,7.63
2022-11-05T12:34:23.704Z,4.65
2022-11-05T12:36:56.513Z,6.13
2022-11-05T12:40:26.117Z,7.00
2022-11-05T12:43:12.026Z,4.13
2022-11-05T12:48:48.400Z,5.10
2022-11-05T12:51:49.812Z,5.10
2022-11-05T12:54:40.291Z,10.45
2022-11-05T12:57:12.899Z,5.53
2022-11-05T12:59:55.555Z,8.70
2022-11-05T13:03:07.276Z,14.63
2022-11-05T13:05:47.118Z,14.93
2022-11-05T13:08:26.079Z,16.27
2022-11-05T13:11:01.302Z,17.15
2022-11-05T13:13:42.989Z,17.90
2022-11-05T13:16:34.266Z,14.48
2022-11-05T13:19:20.928Z,15.40
2022-11-05T13:21:54.933Z,11.02
2022-11-05T13:24:32.264Z,14.40
2022-11-05T13:27:19.083Z,13.75
2022-11-05T13:30:05.933Z,10.65
2022-11-05T13:32:38.844Z,8.80
2022-11-05T13:35:14.945Z,8.32
2022-11-05T13:38:07.335Z,9.13
2022-11-05T13:40:58.206Z,11.18
2022-11-05T13:43:39.980Z,8.02
2022-11-05T13:46:39.475Z,8.27
2022-11-05T13:49:25.863Z,8.98
2022-11-05T13:51:58.202Z,7.18
2022-11-05T13:54:56.645Z,11.52
2022-11-05T13:57:51.755Z,11.32
2022-11-05T14:00:33.224Z,9.55
2022-11-05T14:03:08.478Z,11.38
2022-11-05T14:05:43.317Z,13.30
2022-11-05T14:08:20.299Z,14.07
2022-11-05T14:11:05.470Z,20.92
2022-11-05T14:13:37.842Z,8.73
2022-11-05T14:16:09.294Z,102.93
2022-11-05T14:18:44.545Z,47.03
2022-11-05T14:21:29.930Z,30.80
2022-11-05T14:24:22.212Z,42.50
2022-11-05T14:27:02.093Z,31.92
2022-11-05T14:29:42.005Z,23.77
2022-11-05T14:32:17.703Z,21.77
2022-11-05T14:35:05.523Z,25.65
2022-11-05T14:37:44.758Z,16.83
2022-11-05T14:40:22.576Z,20.88
2022-11-05T14:43:05.281Z,21.80
2022-11-05T14:45:37.455Z,27.92
2022-11-05T14:48:08.114Z,43.97
2022-11-05T14:50:40.839Z,43.63
2022-11-05T14:53:25.625Z,83.15
2022-11-05T14:56:07.823Z,38.47
2022-11-05T14:58:40.664Z,78.57
2022-11-05T15:01:37.463Z,34.80
2022-11-05T15:04:34.596Z,138.68
2022-11-05T15:07:02.369Z,85.72
2022-11-05T15:10:04.418Z,75.55
2022-11-05T15:12:51.202Z,70.43
2022-11-05T15:15:41.317Z,80.45
2022-11-05T15:18:24.878Z,82.10
2022-11-05T15:20:57.103Z,92.85
2022-11-05T15:23:29.934Z,87.53
2022-11-05T15:26:06.217Z,91.22
2022-11-05T15:28:46.378Z,84.70
2022-11-05T15:31:13.675Z,164.10
2022-11-05T15:33:43.079Z,74.55
2022-11-05T15:36:26.739Z,59.92
2022-11-05T15:39:27.971Z,676.78
2022-11-05T15:41:43.338Z,158.05
2022-11-05T15:44:41.823Z,97.32
2022-11-05T15:47:19.739Z,67.80
2022-11-05T15:50:14.016Z,74.50
2022-11-05T15:52:51.044Z,75.47
2022-11-05T15:55:25.117Z,95.03
2022-11-05T15:58:01.794Z,86.30
2022-11-05T16:00:35.737Z,87.25
2022-11-05T16:03:33.380Z,103.32
2022-11-05T16:06:03.057Z,61.60
2022-11-05T16:08:32.500Z,43.80
2022-11-05T16:11:01.319Z,45.40
2022-11-05T16:13:32.177Z,58.75
2022-11-05T16:16:05.527Z,92.40
2022-11-05T16:18:39.002Z,181.35
2022-11-05T16:21:10.803Z,352.38
2022-11-05T16:23:59.562Z,135.82
2022-11-05T16:27:02.280Z,205.50
2022-11-05T16:29:32.675Z,633.38
2022-11-05T16:32:03.191Z,1284.97
2022-11-05T16:34:38.494Z,398.70
2022-11-05T16:37:08.074Z,288.90
2022-11-05T16:39:36.339Z,222.43
2022-11-05T16:42:24.993Z,153.65
2022-11-05T16:44:55.340Z,165.32
2022-11-05T16:47:23.123Z,552.10
2022-11-05T16:49:51.187Z,196.85
2022-11-05T16:52:19.031Z,269.58
2022-11-05T16:54:47.761Z,387.17
2022-11-05T16:57:28.632Z,158.00
2022-11-05T16:59:58.433Z,171.40
2022-11-05T17:02:27.023Z,193.20
2022-11-05T17:04:55.340Z,245.05
2022-11-05T17:07:22.858Z,373.42
2022-11-05T17:09:50.622Z,213.68
2022-11-05T17:12:18.500Z,294.58
2022-11-05T17:14:48.037Z,202.82
2022-11-05T17:17:17.684Z,233.70
2022-11-05T17:19:47.011Z,228.07
2022-11-05T17:22:14.382Z,161.65
2022-11-05T17:24:42.503Z,142.73
2022-11-05T17:27:10.625Z,286.85
2022-11-05T17:29:39.296Z,233.38
2022-11-05T17:32:06.804Z,294.30
2022-11-05T17:34:34.781Z,302.55
2022-11-05T17:37:02.172Z,117.35
2022-11-05T17:39:31.889Z,94.25
2022-11-05T17:41:59.589Z,204.68
2022-11-05T17:44:27.175Z,298.45
2022-11-05T17:46:54.472Z,122.10
2022-11-05T17:49:22.298Z,76.78
2022-11-05T17:51:49.737Z,125.78
2022-11-05T17:54:18.323Z,155.65
2022-11-05T17:56:45.695Z,230.77
2022-11-05T17:59:13.446Z,338.73
2022-11-05T18:01:43.854Z,198.80
2022-11-05T18:04:13.273Z,105.78
2022-11-05T18:06:41.544Z,132.30
2022-11-05T18:09:10.479Z,126.57
2022-11-05T18:11:39.376Z,83.28
2022-11-05T18:14:08.483Z,119.05
2022-11-05T18:16:36.593Z,190.55
2022-11-05T18:19:05.242Z,207.32
2022-11-05T18:21:33.552Z,103.72
2022-11-05T18:24:07.392Z,97.32
2022-11-05T18:26:35.566Z,103.85
2022-11-05T18:29:05.882Z,71.90
2022-11-05T18:31:33.556Z,62.10
2022-11-05T18:34:02.618Z,40.70
2022-11-05T18:36:32.072Z,29.35
2022-11-05T18:39:01.571Z,25.65
2022-11-05T18:41:28.930Z,30.02
2022-11-05T18:44:01.454Z,23.13
2022-11-05T18:49:20.438Z,23.90
2022-11-05T18:51:47.766Z,32.60
2022-11-05T18:54:15.805Z,28.20
2022-11-05T18:56:45.803Z,28.90
2022-11-05T18:59:36.026Z,28.25
2022-11-05T19:02:04.324Z,25.80
2022-11-05T19:04:32.227Z,27.60
2022-11-05T19:07:04.505Z,27.70
2022-11-05T19:09:37.121Z,25.27
2022-11-05T19:12:07.928Z,25.38
2022-11-05T19:14:36.440Z,24.13
2022-11-05T19:17:04.543Z,25.63
2022-11-05T19:19:34.911Z,23.55
2022-11-05T19:22:02.399Z,20.50
2022-11-05T19:24:30.413Z,17.60
2022-11-05T19:26:59.981Z,16.48
2022-11-05T19:29:27.866Z,17.40
2022-11-05T19:31:55.484Z,17.40
2022-11-05T19:34:23.321Z,21.52
2022-11-05T19:36:50.942Z,17.20
2022-11-05T19:39:18.686Z,17.10
2022-11-05T19:41:46.173Z,21.25
2022-11-05T19:44:14.063Z,15.98
2022-11-05T19:46:41.723Z,20.60
2022-11-05T19:49:10.010Z,21.58
2022-11-05T19:51:38.167Z,17.00
2022-11-05T19:54:06.215Z,16.70
2022-11-05T19:56:35.421Z,16.23
2022-11-05T19:59:04.636Z,21.55
2022-11-05T20:01:33.011Z,18.63
2022-11-05T20:04:02.700Z,24.38
2022-11-05T20:06:34.955Z,15.65
2022-11-05T20:09:22.258Z,15.40
2022-11-05T20:11:54.966Z,19.58
2022-11-05T20:14:24.527Z,18.95
2022-11-05T20:16:53.043Z,21.38
2022-11-05T20:19:22.600Z,19.77
2022-11-05T20:21:50.161Z,20.55
2022-11-05T20:24:24.895Z,19.38
2022-11-05T20:26:55.267Z,19.17
2022-11-05T20:29:26.049Z,17.55
2022-11-05T20:31:58.083Z,20.00
2022-11-05T20:34:25.902Z,24.15
2022-11-05T20:36:53.285Z,22.08
2022-11-05T20:39:21.564Z,22.60
2022-11-05T20:41:48.887Z,32.53
2022-11-05T20:44:16.744Z,39.30
2022-11-05T20:46:44.284Z,42.65
2022-11-05T20:49:12.120Z,32.38
2022-11-05T20:51:39.622Z,33.65
2022-11-05T20:54:08.069Z,28.15
2022-11-05T20:56:35.736Z,29.80
2022-11-05T20:59:04.795Z,35.38
2022-11-05T21:01:34.373Z,19.85
2022-11-05T21:04:03.560Z,22.20
2022-11-05T21:06:31.494Z,19.55
2022-11-05T21:08:59.168Z,17.45
2022-11-05T21:11:26.804Z,17.13
2022-11-05T21:13:57.640Z,17.23
2022-11-05T21:16:24.988Z,15.20
2022-11-05T21:18:52.800Z,16.45
2022-11-05T21:21:21.264Z,33.13
2022-11-05T21:23:49.153Z,30.33
2022-11-05T21:26:19.184Z,26.13
2022-11-05T21:28:47.035Z,21.95
2022-11-05T21:31:14.443Z,22.30
2022-11-05T21:33:42.320Z,23.35
2022-11-05T21:36:12.285Z,25.55
2022-11-05T21:38:40.976Z,26.90
2022-11-05T21:41:12.521Z,21.42
2022-11-05T21:43:41.956Z,22.65
2022-11-05T21:46:12.344Z,22.80
2022-11-05T21:48:40.238Z,24.90
2022-11-05T21:51:29.394Z,30.70
2022-11-05T21:54:16.192Z,23.55
2022-11-05T21:57:05.971Z,24.90
2022-11-05T21:59:51.653Z,24.83
2022-11-05T22:02:22.597Z,23.08
2022-11-05T22:04:54.141Z,28.08
2022-11-05T22:07:24.353Z,26.05
2022-11-05T22:09:52.459Z,23.83
2022-11-05T22:12:20.411Z,26.73
2022-11-05T22:14:48.243Z,26.77
2022-11-05T22:17:16.487Z,27.20
2022-11-05T22:19:44.357Z,23.00
2022-11-05T22:22:11.814Z,24.27
2022-11-05T22:24:40.613Z,28.85
2022-11-05T22:27:12.203Z,26.67
2022-11-05T22:29:42.868Z,26.00
2022-11-05T22:32:11.505Z,32.63
2022-11-05T22:34:39.313Z,25.80
2022-11-05T22:37:07.421Z,28.27
2022-11-05T22:39:35.024Z,27.40
2022-11-05T22:42:07.222Z,30.30
2022-11-05T22:44:37.024Z,30.38
2022-11-05T22:47:06.858Z,30.48
2022-11-05T22:49:34.954Z,26.65
2022-11-05T22:52:02.217Z,30.70
2022-11-05T22:54:32.693Z,34.58
2022-11-05T22:57:02.525Z,34.63
2022-11-05T22:59:30.232Z,24.15
2022-11-05T23:01:57.697Z,31.58
2022-11-05T23:04:25.422Z,38.10
2022-11-05T23:07:11.383Z,35.95
2022-11-05T23:12:34.105Z,44.72
2022-11-05T23:15:05.816Z,34.13
2022-11-05T23:17:52.119Z,34.63
2022-11-05T23:20:42.914Z,35.88
2022-11-05T23:23:30.650Z,25.02
2022-11-05T23:26:21.682Z,32.00
2022-11-05T23:28:51.886Z,31.73
2022-11-05T23:31:38.179Z,26.13
2022-11-05T23:34:05.415Z,32.13
2022-11-05T23:36:51.661Z,25.60
2022-11-05T23:39:18.995Z,25.27
2022-11-05T23:42:05.204Z,27.05
2022-11-05T23:44:53.922Z,22.40
2022-11-05T23:47:42.878Z,20.40
2022-11-05T23:50:10.306Z,19.00
2022-11-05T23:52:37.873Z,18.80
2022-11-05T23:55:05.474Z,20.67
2022-11-05T23:57:33.164Z,19.20
